Nautilus — ISPC — position and weather

sailwx.info

Track history (hours):
 
Tides and Currents Weather Stations Pressure Air Temp Water Temp Dewpoint Dewpoint Depression Visibility Wind Speed Wind Dir Waves Ship Positions

Nautilus

Last reported at 2016-Jun-30 17:32 UTC. Time now 2016-Jun-30 17:53 UTC.
Position N 42°49' E 010°12'.

Length 25 m.

Type: Ship. MMSI: 247205700.

Date/timePositionNaut miles runAvg speedWind from/ knotsBaromVisibWave heightAir tempDewpointWater temp
2016-Jun-30 17:32N 42°49' E 010°12'0 0.0
2016-Jun-30 16:33N 42°49' E 010°12'3 2.8
2016-Jun-30 15:33N 42°49' E 010°08'3 2.8
2016-Jun-30 14:31N 42°46' E 010°06'5 5.0
2016-Jun-30 13:33N 42°48' E 010°12'0 0.0
2016-Jun-30 12:33N 42°48' E 010°12'1 0.7
2016-Jun-30 11:29N 42°49' E 010°13'3 1.7
2016-Jun-30 09:33N 42°50' E 010°17'4 1.0
2016-Jun-30 05:31N 42°49' E 010°12'0 0.0
2016-Jun-30 04:32N 42°49' E 010°12'0 0.0
2016-Jun-30 03:33N 42°49' E 010°12'0 0.0
2016-Jun-30 02:15N 42°49' E 010°12'0 0.0
2016-Jun-30 01:10N 42°49' E 010°12'0 0.0
2016-Jun-29 23:30N 42°49' E 010°12'0 0.0
2016-Jun-29 22:23N 42°49' E 010°12'0 0.0
2016-Jun-29 16:33N 42°49' E 010°12'3 2.9
2016-Jun-29 15:33N 42°49' E 010°08'3 2.4
2016-Jun-29 14:25N 42°46' E 010°06'5 5.4
2016-Jun-29 13:33N 42°48' E 010°12'0 0.0
2016-Jun-29 12:32N 42°48' E 010°12'2 2.0
2016-Jun-29 11:33N 42°49' E 010°14'4 3.8
2016-Jun-29 10:32N 42°49' E 010°19'2 2.0
2016-Jun-29 09:33N 42°50' E 010°17'2 1.9
2016-Jun-29 08:30N 42°49' E 010°19'4 4.0
2016-Jun-29 07:33N 42°49' E 010°14'2 1.6
2016-Jun-29 06:20N 42°49' E 010°12'0 0.0
2016-Jun-29 05:32N 42°49' E 010°12'0 0.0
2016-Jun-29 04:33N 42°49' E 010°12'0 0.0
2016-Jun-29 03:33N 42°49' E 010°12'0 0.0
2016-Jun-29 02:29N 42°49' E 010°12'0 0.0
2016-Jun-29 01:33N 42°49' E 010°12'0 0.0
2016-Jun-29 00:33N 42°49' E 010°12'0 0.0
2016-Jun-28 23:33N 42°49' E 010°12'0 0.0
2016-Jun-28 22:31N 42°49' E 010°12'0 0.0
2016-Jun-28 21:32N 42°49' E 010°12'0 0.0
2016-Jun-28 20:33N 42°49' E 010°12'0 0.0
2016-Jun-28 19:32N 42°49' E 010°12'0 0.0
2016-Jun-28 18:31N 42°49' E 010°12'0 0.0
2016-Jun-28 17:33N 42°49' E 010°12'0 0.0
2016-Jun-28 16:33N 42°49' E 010°12'2 2.3
2016-Jun-28 15:33N 42°49' E 010°09'2 1.8
2016-Jun-28 14:11N 42°47' E 010°06'4 6.7
2016-Jun-28 13:32N 42°48' E 010°12'0 0.0
2016-Jun-28 12:33N 42°48' E 010°12'0 0.0
2016-Jun-28 11:33N 42°48' E 010°12'3 1.5
2016-Jun-28 09:26N 42°50' E 010°16'2 1.1
2016-Jun-28 07:24N 42°49' E 010°13'1 1.2
2016-Jun-28 06:33N 42°49' E 010°12'0 0.0
2016-Jun-28 04:33N 42°49' E 010°12'0 0.0
2016-Jun-28 03:33N 42°49' E 010°12'0 0.0
2016-Jun-28 02:33N 42°49' E 010°12'0 0.0
2016-Jun-28 01:33N 42°49' E 010°12'0 0.0
2016-Jun-28 00:33N 42°49' E 010°12'0 0.0
2016-Jun-27 23:33N 42°49' E 010°12'0 0.0
2016-Jun-27 22:33N 42°49' E 010°12'0 0.0
2016-Jun-27 21:33N 42°49' E 010°12'0 0.0
2016-Jun-27 20:32N 42°49' E 010°12'0 0.0
2016-Jun-27 19:33N 42°49' E 010°12'0 0.0
2016-Jun-27 18:33N 42°49' E 010°12'0 0.0
2016-Jun-27 17:33N 42°49' E 010°12'0 0.0
2016-Jun-27 16:33N 42°49' E 010°12'0 0.0
2016-Jun-27 15:33N 42°49' E 010°12'0 0.0
2016-Jun-27 14:33N 42°49' E 010°12'0 0.2
2016-Jun-27 13:33N 42°48' E 010°12'0 0.0
2016-Jun-27 12:33N 42°48' E 010°12'0 0.0
2016-Jun-27 11:33N 42°48' E 010°12'0 0.0
2016-Jun-27 07:09N 42°49' E 010°12'0 0.0
2016-Jun-27 06:33N 42°49' E 010°12'0 0.0
2016-Jun-27 05:33N 42°49' E 010°12'0 0.0
2016-Jun-27 04:33N 42°49' E 010°12'0 0.0
2016-Jun-27 03:33N 42°49' E 010°12'0 0.0
2016-Jun-27 02:33N 42°49' E 010°12'0 0.0
2016-Jun-27 01:33N 42°49' E 010°12'0 0.0
2016-Jun-27 00:29N 42°49' E 010°12'0 0.0
2016-Jun-26 23:30N 42°49' E 010°12'0 0.0
2016-Jun-26 22:31N 42°49' E 010°12'0 0.0
2016-Jun-26 21:33N 42°49' E 010°12'0 0.0
2016-Jun-26 20:33N 42°49' E 010°12'0 0.0
2016-Jun-26 19:33N 42°49' E 010°12'0 0.0
2016-Jun-26 18:33N 42°49' E 010°12'0 0.0
2016-Jun-26 17:33N 42°49' E 010°12'0 0.0
2016-Jun-26 16:33N 42°49' E 010°12'3 2.9
2016-Jun-26 15:33N 42°49' E 010°08'3 2.8
2016-Jun-26 14:30N 42°46' E 010°06'5 4.3
2016-Jun-26 13:22N 42°48' E 010°12'0 0.0
2016-Jun-26 12:28N 42°48' E 010°12'0 0.0
2016-Jun-26 11:27N 42°48' E 010°12'0 0.0
2016-Jun-26 10:13N 42°48' E 010°12'0 0.1
2016-Jun-26 07:12N 42°49' E 010°12'0 0.0
2016-Jun-26 05:27N 42°49' E 010°12'0 0.0
2016-Jun-26 04:33N 42°49' E 010°12'0 0.0
2016-Jun-26 03:31N 42°49' E 010°12'0 0.0
2016-Jun-26 02:33N 42°49' E 010°12'0 0.0
2016-Jun-26 01:32N 42°49' E 010°12'0 0.0
2016-Jun-26 00:33N 42°49' E 010°12'0 0.0
2016-Jun-25 23:33N 42°49' E 010°12'0 0.0
2016-Jun-25 22:33N 42°49' E 010°12'0 0.0
2016-Jun-25 21:33N 42°49' E 010°12'0 0.0
2016-Jun-25 20:29N 42°49' E 010°12'0 0.0
2016-Jun-25 17:28N 42°49' E 010°12'0 0.0
2016-Jun-25 16:30N 42°49' E 010°12'0 0.0
2016-Jun-25 12:09N 42°48' E 010°12'1 1.8
2016-Jun-25 11:27N 42°49' E 010°13'3 1.3
2016-Jun-25 09:33N 42°50' E 010°17'2 2.1
2016-Jun-25 08:30N 42°49' E 010°19'6 4.1
2016-Jun-25 07:09N 42°48' E 010°12'0 0.1
2016-Jun-25 06:33N 42°49' E 010°12'0 0.0
2016-Jun-25 05:33N 42°49' E 010°12'0 0.0
2016-Jun-25 04:33N 42°49' E 010°12'0 0.0
2016-Jun-25 03:33N 42°49' E 010°12'0 0.0
2016-Jun-25 02:27N 42°49' E 010°12'0 0.0
2016-Jun-25 01:10N 42°49' E 010°12'0 0.0
2016-Jun-24 19:29N 42°49' E 010°12'0 0.0
2016-Jun-24 18:31N 42°49' E 010°12'0 0.0
2016-Jun-24 17:31N 42°49' E 010°12'0 0.0
2016-Jun-24 16:18N 42°49' E 010°12'2 2.7
2016-Jun-24 15:33N 42°49' E 010°09'2 0.9
2016-Jun-24 13:06N 42°48' E 010°12'0 0.0
2016-Jun-24 11:31N 42°48' E 010°12'4 2.1
2016-Jun-24 09:33N 42°50' E 010°17'1 0.5
2016-Jun-24 07:33N 42°50' E 010°16'3 1.1
2016-Jun-24 04:31N 42°49' E 010°12'0 0.0
2016-Jun-24 03:26N 42°49' E 010°12'0 0.0
2016-Jun-24 02:33N 42°49' E 010°12'0 0.0
2016-Jun-24 01:31N 42°49' E 010°12'0 0.0
2016-Jun-24 00:32N 42°49' E 010°12'0 0.0
2016-Jun-23 23:33N 42°49' E 010°12'0 0.0
2016-Jun-23 22:32N 42°49' E 010°12'0 0.0
2016-Jun-23 21:32N 42°49' E 010°12'0 0.0
2016-Jun-23 20:29N 42°49' E 010°12'0 0.0
2016-Jun-23 19:33N 42°49' E 010°12'0 0.0
2016-Jun-23 18:32N 42°49' E 010°12'0 0.0
2016-Jun-23 17:32N 42°49' E 010°12'0 0.0
2016-Jun-23 16:33N 42°49' E 010°12'3 1.3
2016-Jun-23 14:06N 42°48' E 010°07'3 5.8
2016-Jun-23 13:32N 42°48' E 010°12'0 0.0
2016-Jun-23 12:30N 42°48' E 010°12'0 0.0
2016-Jun-23 11:33N 42°48' E 010°12'6 5.5
2016-Jun-23 10:33N 42°49' E 010°19'1 1.4
2016-Jun-23 09:33N 42°50' E 010°18'1 1.3
2016-Jun-23 08:32N 42°49' E 010°19'3 3.5
2016-Jun-23 07:33N 42°50' E 010°15'2 1.2
2016-Jun-23 05:33N 42°49' E 010°12'0 0.0
2016-Jun-23 04:33N 42°49' E 010°12'0 0.0
2016-Jun-23 03:32N 42°49' E 010°12'0 0.0
2016-Jun-23 02:31N 42°49' E 010°12'0 0.0
2016-Jun-23 01:33N 42°49' E 010°12'0 0.0
2016-Jun-23 00:33N 42°49' E 010°12'0 0.0
2016-Jun-22 23:33N 42°49' E 010°12'0 0.0
2016-Jun-22 22:33N 42°49' E 010°12'0 0.0
2016-Jun-22 21:32N 42°49' E 010°12'0 0.0
2016-Jun-22 20:32N 42°49' E 010°12'0 0.0
2016-Jun-22 19:33N 42°49' E 010°12'0 0.0
2016-Jun-22 18:19N 42°49' E 010°12'0 0.0
2016-Jun-22 17:33N 42°49' E 010°12'0 0.0
2016-Jun-22 16:29N 42°49' E 010°12'0 0.1
2016-Jun-22 13:22N 42°48' E 010°12'1 0.2
2016-Jun-22 07:19N 42°49' E 010°13'1 1.5
2016-Jun-22 06:32N 42°49' E 010°12'0 0.0
2016-Jun-22 05:33N 42°49' E 010°12'0 0.0
2016-Jun-22 03:32N 42°49' E 010°12'0 0.0
2016-Jun-22 02:33N 42°49' E 010°12'0 0.0
2016-Jun-22 01:33N 42°49' E 010°12'0 0.0
2016-Jun-22 00:33N 42°49' E 010°12'0 0.0
2016-Jun-21 23:32N 42°49' E 010°12'0 0.0
2016-Jun-21 22:33N 42°49' E 010°12'0 0.0
2016-Jun-21 21:32N 42°49' E 010°12'0 0.0
2016-Jun-21 20:31N 42°49' E 010°12'0 0.0
2016-Jun-21 19:33N 42°49' E 010°12'0 0.0
2016-Jun-21 18:31N 42°49' E 010°12'0 0.0
2016-Jun-21 16:08N 42°49' E 010°12'2 3.8
2016-Jun-21 15:33N 42°49' E 010°09'4 3.6
2016-Jun-21 14:32N 42°45' E 010°06'5 1.7
2016-Jun-21 11:29N 42°49' E 010°12'5 5.1
2016-Jun-21 10:26N 42°49' E 010°19'2 2.0
2016-Jun-21 09:33N 42°50' E 010°17'2 1.7
2016-Jun-21 08:32N 42°49' E 010°19'3 3.3
2016-Jun-21 07:33N 42°50' E 010°15'3 2.7
2016-Jun-21 06:33N 42°49' E 010°12'0 0.0
2016-Jun-21 03:13N 42°49' E 010°12'0 0.0
2016-Jun-21 02:18N 42°49' E 010°12'0 0.0
2016-Jun-21 01:32N 42°49' E 010°12'0 0.0
2016-Jun-21 00:19N 42°49' E 010°12'0 0.0
2016-Jun-20 22:31N 42°49' E 010°12'0 0.0
2016-Jun-20 21:33N 42°49' E 010°12'0 0.0
2016-Jun-20 20:32N 42°49' E 010°12'0 0.0
2016-Jun-20 19:33N 42°49' E 010°12'0 0.0
2016-Jun-20 18:33N 42°49' E 010°12'  
Track history (hours):
 
Tides and Currents Weather Stations Pressure Air Temp Water Temp Dewpoint Dewpoint Depression Visibility Wind Speed Wind Dir Waves Ship Positions

Nautilus

Last reported at 2016-Jun-30 17:32 UTC. Time now 2016-Jun-30 17:53 UTC.
Position N 42°49' E 010°12'.

Length 25 m.

Type: Ship. MMSI: 247205700.

Date/timePositionNaut miles runAvg speedWind from/ knotsBaromVisibWave heightAir tempDewpointWater temp
2016-Jun-30 17:32N 42°49' E 010°12'0 0.0
2016-Jun-30 16:33N 42°49' E 010°12'3 2.8
2016-Jun-30 15:33N 42°49' E 010°08'3 2.8
2016-Jun-30 14:31N 42°46' E 010°06'5 5.0
2016-Jun-30 13:33N 42°48' E 010°12'0 0.0
2016-Jun-30 12:33N 42°48' E 010°12'1 0.7
2016-Jun-30 11:29N 42°49' E 010°13'3 1.7
2016-Jun-30 09:33N 42°50' E 010°17'4 1.0
2016-Jun-30 05:31N 42°49' E 010°12'0 0.0
2016-Jun-30 04:32N 42°49' E 010°12'0 0.0
2016-Jun-30 03:33N 42°49' E 010°12'0 0.0
2016-Jun-30 02:15N 42°49' E 010°12'0 0.0
2016-Jun-30 01:10N 42°49' E 010°12'0 0.0
2016-Jun-29 23:30N 42°49' E 010°12'0 0.0
2016-Jun-29 22:23N 42°49' E 010°12'0 0.0
2016-Jun-29 16:33N 42°49' E 010°12'3 2.9
2016-Jun-29 15:33N 42°49' E 010°08'3 2.4
2016-Jun-29 14:25N 42°46' E 010°06'5 5.4
2016-Jun-29 13:33N 42°48' E 010°12'0 0.0
2016-Jun-29 12:32N 42°48' E 010°12'2 2.0
2016-Jun-29 11:33N 42°49' E 010°14'4 3.8
2016-Jun-29 10:32N 42°49' E 010°19'2 2.0
2016-Jun-29 09:33N 42°50' E 010°17'2 1.9
2016-Jun-29 08:30N 42°49' E 010°19'4 4.0
2016-Jun-29 07:33N 42°49' E 010°14'2 1.6
2016-Jun-29 06:20N 42°49' E 010°12'0 0.0
2016-Jun-29 05:32N 42°49' E 010°12'0 0.0
2016-Jun-29 04:33N 42°49' E 010°12'0 0.0
2016-Jun-29 03:33N 42°49' E 010°12'0 0.0
2016-Jun-29 02:29N 42°49' E 010°12'0 0.0
2016-Jun-29 01:33N 42°49' E 010°12'0 0.0
2016-Jun-29 00:33N 42°49' E 010°12'0 0.0
2016-Jun-28 23:33N 42°49' E 010°12'0 0.0
2016-Jun-28 22:31N 42°49' E 010°12'0 0.0
2016-Jun-28 21:32N 42°49' E 010°12'0 0.0
2016-Jun-28 20:33N 42°49' E 010°12'0 0.0
2016-Jun-28 19:32N 42°49' E 010°12'0 0.0
2016-Jun-28 18:31N 42°49' E 010°12'0 0.0
2016-Jun-28 17:33N 42°49' E 010°12'0 0.0
2016-Jun-28 16:33N 42°49' E 010°12'2 2.3
2016-Jun-28 15:33N 42°49' E 010°09'2 1.8
2016-Jun-28 14:11N 42°47' E 010°06'4 6.7
2016-Jun-28 13:32N 42°48' E 010°12'0 0.0
2016-Jun-28 12:33N 42°48' E 010°12'0 0.0
2016-Jun-28 11:33N 42°48' E 010°12'3 1.5
2016-Jun-28 09:26N 42°50' E 010°16'2 1.1
2016-Jun-28 07:24N 42°49' E 010°13'1 1.2
2016-Jun-28 06:33N 42°49' E 010°12'0 0.0
2016-Jun-28 04:33N 42°49' E 010°12'0 0.0
2016-Jun-28 03:33N 42°49' E 010°12'0 0.0
2016-Jun-28 02:33N 42°49' E 010°12'0 0.0
2016-Jun-28 01:33N 42°49' E 010°12'0 0.0
2016-Jun-28 00:33N 42°49' E 010°12'0 0.0
2016-Jun-27 23:33N 42°49' E 010°12'0 0.0
2016-Jun-27 22:33N 42°49' E 010°12'0 0.0
2016-Jun-27 21:33N 42°49' E 010°12'0 0.0
2016-Jun-27 20:32N 42°49' E 010°12'0 0.0
2016-Jun-27 19:33N 42°49' E 010°12'0 0.0
2016-Jun-27 18:33N 42°49' E 010°12'0 0.0
2016-Jun-27 17:33N 42°49' E 010°12'0 0.0
2016-Jun-27 16:33N 42°49' E 010°12'0 0.0
2016-Jun-27 15:33N 42°49' E 010°12'0 0.0
2016-Jun-27 14:33N 42°49' E 010°12'0 0.2
2016-Jun-27 13:33N 42°48' E 010°12'0 0.0
2016-Jun-27 12:33N 42°48' E 010°12'0 0.0
2016-Jun-27 11:33N 42°48' E 010°12'0 0.0
2016-Jun-27 07:09N 42°49' E 010°12'0 0.0
2016-Jun-27 06:33N 42°49' E 010°12'0 0.0
2016-Jun-27 05:33N 42°49' E 010°12'0 0.0
2016-Jun-27 04:33N 42°49' E 010°12'0 0.0
2016-Jun-27 03:33N 42°49' E 010°12'0 0.0
2016-Jun-27 02:33N 42°49' E 010°12'0 0.0
2016-Jun-27 01:33N 42°49' E 010°12'0 0.0
2016-Jun-27 00:29N 42°49' E 010°12'0 0.0
2016-Jun-26 23:30N 42°49' E 010°12'0 0.0
2016-Jun-26 22:31N 42°49' E 010°12'0 0.0
2016-Jun-26 21:33N 42°49' E 010°12'0 0.0
2016-Jun-26 20:33N 42°49' E 010°12'0 0.0
2016-Jun-26 19:33N 42°49' E 010°12'0 0.0
2016-Jun-26 18:33N 42°49' E 010°12'0 0.0
2016-Jun-26 17:33N 42°49' E 010°12'0 0.0
2016-Jun-26 16:33N 42°49' E 010°12'3 2.9
2016-Jun-26 15:33N 42°49' E 010°08'3 2.8
2016-Jun-26 14:30N 42°46' E 010°06'5 4.3
2016-Jun-26 13:22N 42°48' E 010°12'0 0.0
2016-Jun-26 12:28N 42°48' E 010°12'0 0.0
2016-Jun-26 11:27N 42°48' E 010°12'0 0.0
2016-Jun-26 10:13N 42°48' E 010°12'0 0.1
2016-Jun-26 07:12N 42°49' E 010°12'0 0.0
2016-Jun-26 05:27N 42°49' E 010°12'0 0.0
2016-Jun-26 04:33N 42°49' E 010°12'0 0.0
2016-Jun-26 03:31N 42°49' E 010°12'0 0.0
2016-Jun-26 02:33N 42°49' E 010°12'0 0.0
2016-Jun-26 01:32N 42°49' E 010°12'0 0.0
2016-Jun-26 00:33N 42°49' E 010°12'0 0.0
2016-Jun-25 23:33N 42°49' E 010°12'0 0.0
2016-Jun-25 22:33N 42°49' E 010°12'0 0.0
2016-Jun-25 21:33N 42°49' E 010°12'0 0.0
2016-Jun-25 20:29N 42°49' E 010°12'0 0.0
2016-Jun-25 17:28N 42°49' E 010°12'0 0.0
2016-Jun-25 16:30N 42°49' E 010°12'0 0.0
2016-Jun-25 12:09N 42°48' E 010°12'1 1.8
2016-Jun-25 11:27N 42°49' E 010°13'3 1.3
2016-Jun-25 09:33N 42°50' E 010°17'2 2.1
2016-Jun-25 08:30N 42°49' E 010°19'6 4.1
2016-Jun-25 07:09N 42°48' E 010°12'0 0.1
2016-Jun-25 06:33N 42°49' E 010°12'0 0.0
2016-Jun-25 05:33N 42°49' E 010°12'0 0.0
2016-Jun-25 04:33N 42°49' E 010°12'0 0.0
2016-Jun-25 03:33N 42°49' E 010°12'0 0.0
2016-Jun-25 02:27N 42°49' E 010°12'0 0.0
2016-Jun-25 01:10N 42°49' E 010°12'0 0.0
2016-Jun-24 19:29N 42°49' E 010°12'0 0.0
2016-Jun-24 18:31N 42°49' E 010°12'0 0.0
2016-Jun-24 17:31N 42°49' E 010°12'0 0.0
2016-Jun-24 16:18N 42°49' E 010°12'2 2.7
2016-Jun-24 15:33N 42°49' E 010°09'2 0.9
2016-Jun-24 13:06N 42°48' E 010°12'0 0.0
2016-Jun-24 11:31N 42°48' E 010°12'4 2.1
2016-Jun-24 09:33N 42°50' E 010°17'1 0.5
2016-Jun-24 07:33N 42°50' E 010°16'3 1.1
2016-Jun-24 04:31N 42°49' E 010°12'0 0.0
2016-Jun-24 03:26N 42°49' E 010°12'0 0.0
2016-Jun-24 02:33N 42°49' E 010°12'0 0.0
2016-Jun-24 01:31N 42°49' E 010°12'0 0.0
2016-Jun-24 00:32N 42°49' E 010°12'0 0.0
2016-Jun-23 23:33N 42°49' E 010°12'0 0.0
2016-Jun-23 22:32N 42°49' E 010°12'0 0.0
2016-Jun-23 21:32N 42°49' E 010°12'0 0.0
2016-Jun-23 20:29N 42°49' E 010°12'0 0.0
2016-Jun-23 19:33N 42°49' E 010°12'0 0.0
2016-Jun-23 18:32N 42°49' E 010°12'0 0.0
2016-Jun-23 17:32N 42°49' E 010°12'0 0.0
2016-Jun-23 16:33N 42°49' E 010°12'3 1.3
2016-Jun-23 14:06N 42°48' E 010°07'3 5.8
2016-Jun-23 13:32N 42°48' E 010°12'0 0.0
2016-Jun-23 12:30N 42°48' E 010°12'0 0.0
2016-Jun-23 11:33N 42°48' E 010°12'6 5.5
2016-Jun-23 10:33N 42°49' E 010°19'1 1.4
2016-Jun-23 09:33N 42°50' E 010°18'1 1.3
2016-Jun-23 08:32N 42°49' E 010°19'3 3.5
2016-Jun-23 07:33N 42°50' E 010°15'2 1.2
2016-Jun-23 05:33N 42°49' E 010°12'0 0.0
2016-Jun-23 04:33N 42°49' E 010°12'0 0.0
2016-Jun-23 03:32N 42°49' E 010°12'0 0.0
2016-Jun-23 02:31N 42°49' E 010°12'0 0.0
2016-Jun-23 01:33N 42°49' E 010°12'0 0.0
2016-Jun-23 00:33N 42°49' E 010°12'0 0.0
2016-Jun-22 23:33N 42°49' E 010°12'0 0.0
2016-Jun-22 22:33N 42°49' E 010°12'0 0.0
2016-Jun-22 21:32N 42°49' E 010°12'0 0.0
2016-Jun-22 20:32N 42°49' E 010°12'0 0.0
2016-Jun-22 19:33N 42°49' E 010°12'0 0.0
2016-Jun-22 18:19N 42°49' E 010°12'0 0.0
2016-Jun-22 17:33N 42°49' E 010°12'0 0.0
2016-Jun-22 16:29N 42°49' E 010°12'0 0.1
2016-Jun-22 13:22N 42°48' E 010°12'1 0.2
2016-Jun-22 07:19N 42°49' E 010°13'1 1.5
2016-Jun-22 06:32N 42°49' E 010°12'0 0.0
2016-Jun-22 05:33N 42°49' E 010°12'0 0.0
2016-Jun-22 03:32N 42°49' E 010°12'0 0.0
2016-Jun-22 02:33N 42°49' E 010°12'0 0.0
2016-Jun-22 01:33N 42°49' E 010°12'0 0.0
2016-Jun-22 00:33N 42°49' E 010°12'0 0.0
2016-Jun-21 23:32N 42°49' E 010°12'0 0.0
2016-Jun-21 22:33N 42°49' E 010°12'0 0.0
2016-Jun-21 21:32N 42°49' E 010°12'0 0.0
2016-Jun-21 20:31N 42°49' E 010°12'0 0.0
2016-Jun-21 19:33N 42°49' E 010°12'0 0.0
2016-Jun-21 18:31N 42°49' E 010°12'0 0.0
2016-Jun-21 16:08N 42°49' E 010°12'2 3.8
2016-Jun-21 15:33N 42°49' E 010°09'4 3.6
2016-Jun-21 14:32N 42°45' E 010°06'5 1.7
2016-Jun-21 11:29N 42°49' E 010°12'5 5.1
2016-Jun-21 10:26N 42°49' E 010°19'2 2.0
2016-Jun-21 09:33N 42°50' E 010°17'2 1.7
2016-Jun-21 08:32N 42°49' E 010°19'3 3.3
2016-Jun-21 07:33N 42°50' E 010°15'3 2.7
2016-Jun-21 06:33N 42°49' E 010°12'0 0.0
2016-Jun-21 03:13N 42°49' E 010°12'0 0.0
2016-Jun-21 02:18N 42°49' E 010°12'0 0.0
2016-Jun-21 01:32N 42°49' E 010°12'0 0.0
2016-Jun-21 00:19N 42°49' E 010°12'0 0.0
2016-Jun-20 22:31N 42°49' E 010°12'0 0.0
2016-Jun-20 21:33N 42°49' E 010°12'0 0.0
2016-Jun-20 20:32N 42°49' E 010°12'0 0.0
2016-Jun-20 19:33N 42°49' E 010°12'0 0.0
2016-Jun-20 18:33N 42°49' E 010°12'  

Dump ship's entire track history